createdAt,value
2019-01-28T00:02:01.219Z,69.43
2019-01-28T00:04:32.204Z,43.93
2019-01-28T00:07:03.199Z,51.20
2019-01-28T00:09:34.120Z,40.97
2019-01-28T00:12:07.268Z,76.13
2019-01-28T00:14:38.374Z,51.27
2019-01-28T00:17:09.399Z,63.67
2019-01-28T00:19:40.841Z,42.50
2019-01-28T00:22:11.844Z,39.57
2019-01-28T00:24:43.198Z,58.97
2019-01-28T00:27:14.364Z,51.80
2019-01-28T00:29:45.278Z,77.87
2019-01-28T00:32:16.419Z,35.70
2019-01-28T00:34:47.634Z,43.03
2019-01-28T00:37:18.598Z,50.23
2019-01-28T00:39:49.889Z,50.70
2019-01-28T00:42:21.084Z,45.00
2019-01-28T00:44:52.488Z,64.33
2019-01-28T00:47:23.959Z,35.67
2019-01-28T00:49:54.924Z,67.67
2019-01-28T00:52:26.049Z,68.27
2019-01-28T00:54:57.303Z,53.00
2019-01-28T00:57:28.497Z,41.87
2019-01-28T01:00:00.884Z,27.40
2019-01-28T01:02:32.474Z,62.03
2019-01-28T01:05:03.844Z,39.37
2019-01-28T01:07:35.143Z,40.83
2019-01-28T01:10:07.325Z,46.30
2019-01-28T01:12:41.674Z,43.23
2019-01-28T01:15:13.599Z,38.53
2019-01-28T01:17:46.014Z,66.00
2019-01-28T01:20:17.324Z,38.27
2019-01-28T01:22:48.424Z,50.63
2019-01-28T01:25:19.358Z,50.77
2019-01-28T01:27:50.960Z,69.60
2019-01-28T01:30:21.909Z,66.33
2019-01-28T01:32:53.263Z,34.63
2019-01-28T01:35:24.243Z,49.80
2019-01-28T01:37:55.344Z,46.33
2019-01-28T01:40:26.753Z,41.87
2019-01-28T01:42:58.338Z,38.57
2019-01-28T01:45:29.684Z,67.27
2019-01-28T01:48:01.684Z,49.33
2019-01-28T01:50:32.645Z,32.43
2019-01-28T01:53:03.748Z,35.93
2019-01-28T01:55:34.639Z,48.67
2019-01-28T01:58:07.513Z,34.83
2019-01-28T02:00:38.719Z,48.37
2019-01-28T02:03:09.755Z,53.00
2019-01-28T02:05:40.628Z,44.17
2019-01-28T02:08:11.958Z,37.90
2019-01-28T02:10:42.993Z,58.70
2019-01-28T02:13:14.599Z,32.03
2019-01-28T02:15:45.513Z,42.07
2019-01-28T02:18:16.599Z,43.53
2019-01-28T02:20:48.033Z,43.50
2019-01-28T02:23:19.218Z,41.93
2019-01-28T02:25:50.518Z,36.03
2019-01-28T02:28:21.559Z,25.93
2019-01-28T02:30:52.548Z,39.17
2019-01-28T02:33:24.064Z,31.13
2019-01-28T02:35:55.411Z,26.30
2019-01-28T02:38:26.463Z,29.27
2019-01-28T02:40:57.726Z,49.97
2019-01-28T02:43:29.264Z,39.60
2019-01-28T02:46:00.320Z,40.20
2019-01-28T02:48:31.389Z,36.90
2019-01-28T02:51:02.433Z,32.87
2019-01-28T02:53:33.513Z,34.03
2019-01-28T02:56:04.873Z,40.80
2019-01-28T02:58:36.133Z,31.40
2019-01-28T03:01:07.031Z,58.40
2019-01-28T03:03:38.038Z,37.93
2019-01-28T03:06:09.069Z,29.43
2019-01-28T03:08:40.138Z,27.10
2019-01-28T03:11:11.198Z,45.37
2019-01-28T03:13:42.679Z,30.17
2019-01-28T03:16:14.198Z,50.10
2019-01-28T03:18:45.503Z,26.43
2019-01-28T03:21:16.794Z,36.37
2019-01-28T03:23:47.833Z,35.60
2019-01-28T03:26:19.035Z,39.63
2019-01-28T03:28:50.316Z,69.53
2019-01-28T03:31:21.565Z,34.83
2019-01-28T03:33:52.879Z,55.67
2019-01-28T03:36:24.081Z,58.57
2019-01-28T03:38:55.015Z,58.07
2019-01-28T03:41:26.575Z,83.77
2019-01-28T03:43:57.853Z,43.60
2019-01-28T03:46:29.160Z,36.53
2019-01-28T03:49:00.400Z,47.53
2019-01-28T03:51:31.939Z,42.77
2019-01-28T03:54:03.211Z,61.10
2019-01-28T03:56:34.459Z,62.57
2019-01-28T03:59:05.638Z,39.37
2019-01-28T04:01:36.654Z,53.77
2019-01-28T04:04:07.633Z,34.97
2019-01-28T04:06:38.608Z,33.07
2019-01-28T04:09:10.497Z,52.27
2019-01-28T04:11:41.599Z,49.07
2019-01-28T04:14:12.638Z,37.93
2019-01-28T04:16:44.223Z,51.10
2019-01-28T04:19:15.884Z,41.40
2019-01-28T04:21:46.778Z,25.53
2019-01-28T04:24:18.271Z,20.93
2019-01-28T04:26:49.153Z,21.57
2019-01-28T04:29:20.698Z,19.93
2019-01-28T04:31:51.606Z,12.53
2019-01-28T04:34:23.046Z,9.50
2019-01-28T04:36:54.268Z,12.47
2019-01-28T04:39:25.833Z,19.10
2019-01-28T04:41:57.128Z,5.03
2019-01-28T04:44:28.123Z,19.17
2019-01-28T04:46:59.534Z,22.23
2019-01-28T04:49:30.761Z,6.93
2019-01-28T04:52:01.908Z,25.13
2019-01-28T04:54:32.960Z,33.93
2019-01-28T04:57:04.338Z,32.40
2019-01-28T04:59:38.841Z,26.33
2019-01-28T05:02:10.079Z,22.50
2019-01-28T05:04:41.145Z,19.07
2019-01-28T05:07:11.983Z,45.57
2019-01-28T05:09:43.058Z,21.23
2019-01-28T05:12:14.473Z,21.63
2019-01-28T05:14:45.553Z,18.97
2019-01-28T05:17:16.878Z,18.57
2019-01-28T05:19:47.950Z,20.07
2019-01-28T05:22:19.459Z,14.73
2019-01-28T05:24:50.439Z,20.10
2019-01-28T05:27:21.709Z,24.23
2019-01-28T05:29:53.043Z,15.27
2019-01-28T05:32:24.499Z,13.43
2019-01-28T05:34:55.526Z,20.03
2019-01-28T05:37:26.818Z,12.37
2019-01-28T05:40:00.959Z,12.80
2019-01-28T05:42:31.846Z,20.57
2019-01-28T05:45:03.329Z,23.03
2019-01-28T05:47:37.678Z,19.70
2019-01-28T05:50:09.033Z,19.13
2019-01-28T05:52:40.118Z,32.27
2019-01-28T05:55:11.819Z,34.33
2019-01-28T05:57:42.919Z,20.90
2019-01-28T06:00:16.443Z,18.23
2019-01-28T06:02:47.809Z,19.23
2019-01-28T06:05:19.540Z,17.67
2019-01-28T06:07:50.643Z,25.77
2019-01-28T06:10:21.833Z,22.80
2019-01-28T06:12:53.298Z,16.20
2019-01-28T06:15:24.458Z,20.17
2019-01-28T06:17:55.779Z,26.10
2019-01-28T06:20:27.524Z,14.50
2019-01-28T06:22:58.829Z,15.33
2019-01-28T06:25:30.719Z,11.60
2019-01-28T06:28:02.203Z,53.73
2019-01-28T06:30:36.008Z,17.80
2019-01-28T06:33:07.324Z,13.27
2019-01-28T06:35:38.363Z,24.63
2019-01-28T06:38:12.254Z,22.83
2019-01-28T06:40:44.679Z,25.80
2019-01-28T06:43:16.153Z,13.23
2019-01-28T06:45:47.274Z,18.43
2019-01-28T06:48:18.399Z,18.37
2019-01-28T06:50:49.479Z,15.40
2019-01-28T06:53:20.993Z,22.43
2019-01-28T06:55:52.173Z,21.27
2019-01-28T06:58:23.138Z,22.93
2019-01-28T07:00:55.363Z,17.83
2019-01-28T07:03:26.794Z,34.17
2019-01-28T07:05:57.900Z,8.57
2019-01-28T07:08:29.373Z,17.10
2019-01-28T07:11:00.838Z,18.13
2019-01-28T07:13:31.769Z,16.93
2019-01-28T07:16:02.894Z,13.13
2019-01-28T07:18:33.914Z,13.90
2019-01-28T07:21:06.978Z,24.87
2019-01-28T07:23:37.903Z,8.60
2019-01-28T07:26:11.059Z,11.93
2019-01-28T07:28:42.024Z,25.97
2019-01-28T07:31:13.740Z,7.10
2019-01-28T07:33:45.079Z,16.67
2019-01-28T07:36:16.494Z,6.60
2019-01-28T07:38:47.808Z,9.80
2019-01-28T07:41:19.358Z,23.40
2019-01-28T07:43:52.014Z,10.63
2019-01-28T07:46:23.579Z,11.57
2019-01-28T07:48:54.873Z,15.70
2019-01-28T07:51:26.399Z,16.43
2019-01-28T07:53:57.703Z,7.87
2019-01-28T07:56:28.808Z,15.63
2019-01-28T07:59:00.313Z,19.20
2019-01-28T08:01:33.043Z,7.47
2019-01-28T08:04:04.019Z,10.47
2019-01-28T08:06:35.724Z,6.20
2019-01-28T08:09:08.383Z,16.23
2019-01-28T08:11:40.013Z,27.67
2019-01-28T08:14:11.394Z,18.43
2019-01-28T08:16:42.579Z,12.87
2019-01-28T08:19:13.584Z,10.47
2019-01-28T08:21:44.723Z,9.10
2019-01-28T08:24:16.163Z,6.30
2019-01-28T08:26:47.709Z,8.60
2019-01-28T08:29:18.678Z,8.57
2019-01-28T08:31:51.813Z,16.50
2019-01-28T08:34:23.301Z,12.20
2019-01-28T08:36:54.866Z,23.53
2019-01-28T08:39:26.279Z,11.43
2019-01-28T08:41:57.443Z,6.83
2019-01-28T08:44:28.483Z,9.90
2019-01-28T08:46:59.954Z,21.00
2019-01-28T08:49:31.473Z,9.43
2019-01-28T08:52:02.653Z,15.73
2019-01-28T08:54:33.888Z,14.90
2019-01-28T08:57:05.573Z,7.20
2019-01-28T08:59:36.528Z,7.43
2019-01-28T09:02:08.429Z,10.10
2019-01-28T09:04:39.425Z,14.40
2019-01-28T09:07:11.184Z,8.53
2019-01-28T09:09:42.758Z,12.10
2019-01-28T09:12:14.340Z,15.43
2019-01-28T09:14:45.398Z,8.43
2019-01-28T09:17:16.553Z,13.47
2019-01-28T09:19:47.993Z,5.80
2019-01-28T09:22:19.093Z,10.77
2019-01-28T09:24:50.184Z,10.67
2019-01-28T09:27:21.628Z,10.33
2019-01-28T09:29:52.750Z,9.37
2019-01-28T09:32:24.635Z,14.10
2019-01-28T09:34:55.994Z,11.17
2019-01-28T09:37:30.314Z,11.73
2019-01-28T09:40:01.899Z,16.03
2019-01-28T09:42:34.613Z,18.77
2019-01-28T09:45:06.673Z,28.70
2019-01-28T09:47:37.724Z,11.83
2019-01-28T09:50:09.184Z,14.77
2019-01-28T09:52:43.114Z,21.90
2019-01-28T09:55:14.704Z,10.20
2019-01-28T09:57:47.353Z,24.73
2019-01-28T10:00:22.038Z,23.13
2019-01-28T10:02:54.114Z,15.23
2019-01-28T10:05:25.733Z,8.63
2019-01-28T10:07:57.313Z,6.67
2019-01-28T10:10:28.944Z,17.20
2019-01-28T10:13:01.808Z,5.53
2019-01-28T10:15:33.498Z,16.67
2019-01-28T10:18:05.068Z,8.07
2019-01-28T10:20:37.828Z,10.53
2019-01-28T10:23:08.919Z,10.77
2019-01-28T10:25:40.196Z,13.07
2019-01-28T10:28:11.563Z,9.37
2019-01-28T10:30:44.542Z,17.13
2019-01-28T10:33:21.474Z,11.30
2019-01-28T10:35:52.954Z,18.37
2019-01-28T10:38:24.039Z,9.40
2019-01-28T10:40:55.359Z,3.63
2019-01-28T10:43:26.558Z,6.17
2019-01-28T10:45:58.244Z,16.33
2019-01-28T10:48:30.083Z,9.13
2019-01-28T10:51:01.223Z,5.47
2019-01-28T10:53:32.843Z,12.20
2019-01-28T10:56:03.843Z,12.27
2019-01-28T10:58:35.083Z,24.97
2019-01-28T11:01:06.323Z,4.20
2019-01-28T11:03:37.788Z,4.50
2019-01-28T11:06:09.358Z,6.33
2019-01-28T11:08:40.419Z,11.53
2019-01-28T11:11:11.843Z,9.40
2019-01-28T11:13:42.933Z,8.00
2019-01-28T11:16:13.904Z,3.93
2019-01-28T11:18:45.416Z,8.43
2019-01-28T11:21:17.027Z,9.70
2019-01-28T11:23:48.718Z,5.90
2019-01-28T11:26:19.997Z,7.30
2019-01-28T11:28:51.373Z,12.07
2019-01-28T11:31:22.554Z,5.43
2019-01-28T11:33:54.245Z,11.03
2019-01-28T11:36:25.963Z,13.50
2019-01-28T11:38:57.688Z,4.93
2019-01-28T11:41:28.819Z,7.30
2019-01-28T11:44:00.033Z,10.87
2019-01-28T11:46:31.126Z,12.57
2019-01-28T11:49:05.928Z,8.40
2019-01-28T11:51:35.198Z,8.57
2019-01-28T11:54:06.910Z,20.20
2019-01-28T11:56:38.979Z,12.37
2019-01-28T11:59:10.729Z,9.37
2019-01-28T12:01:42.373Z,6.87
2019-01-28T12:04:13.783Z,9.10
2019-01-28T12:06:44.753Z,7.33
2019-01-28T12:09:15.870Z,10.73
2019-01-28T12:11:46.913Z,14.93
2019-01-28T12:14:19.983Z,18.43
2019-01-28T12:16:52.298Z,14.83
2019-01-28T12:19:23.418Z,16.17
2019-01-28T12:21:54.493Z,10.57
2019-01-28T12:24:26.048Z,10.00
2019-01-28T12:26:57.379Z,9.43
2019-01-28T12:29:28.613Z,13.00
2019-01-28T12:31:59.738Z,17.67
2019-01-28T12:34:30.774Z,18.03
2019-01-28T12:37:02.303Z,8.20
2019-01-28T12:39:34.548Z,10.27
2019-01-28T12:42:05.808Z,19.23
2019-01-28T12:44:36.912Z,6.77
2019-01-28T12:47:07.853Z,11.03
2019-01-28T12:49:40.308Z,11.67
2019-01-28T12:52:12.865Z,11.47
2019-01-28T12:54:44.429Z,7.40
2019-01-28T12:57:15.742Z,18.50
2019-01-28T12:59:47.253Z,8.93
2019-01-28T13:02:18.783Z,6.53
2019-01-28T13:04:49.955Z,7.10
2019-01-28T13:07:21.843Z,8.10
2019-01-28T13:09:52.983Z,7.37
2019-01-28T13:12:24.009Z,20.50
2019-01-28T13:14:55.173Z,7.10
2019-01-28T13:17:26.493Z,6.23
2019-01-28T13:19:57.559Z,11.23
2019-01-28T13:22:28.648Z,7.97
2019-01-28T13:25:01.070Z,17.60
2019-01-28T13:27:32.728Z,5.70
2019-01-28T13:30:04.239Z,7.13
2019-01-28T13:32:37.989Z,6.57
2019-01-28T13:35:09.121Z,4.87
2019-01-28T13:37:42.378Z,8.03
2019-01-28T13:40:14.263Z,11.60
2019-01-28T13:42:45.558Z,46.03
2019-01-28T13:45:17.658Z,64.40
2019-01-28T13:47:48.818Z,102.03
2019-01-28T13:50:20.958Z,263.37
2019-01-28T13:52:52.819Z,24.73
2019-01-28T13:55:24.598Z,320.07
2019-01-28T13:57:56.038Z,399.77
2019-01-28T14:00:27.993Z,448.73
2019-01-28T14:03:00.483Z,495.00
2019-01-28T14:05:32.133Z,388.10
2019-01-28T14:08:03.909Z,279.70
2019-01-28T14:10:35.924Z,209.07
2019-01-28T14:13:07.347Z,229.90
2019-01-28T14:15:40.183Z,283.43
2019-01-28T14:18:12.843Z,333.73
2019-01-28T14:20:44.094Z,111.43
2019-01-28T14:23:16.255Z,186.43
2019-01-28T14:25:47.264Z,154.20
2019-01-28T14:28:18.403Z,20.47
2019-01-28T14:30:50.175Z,5.93
2019-01-28T14:33:22.464Z,6.80
2019-01-28T14:35:53.585Z,3.20
2019-01-28T14:38:25.004Z,1.30
2019-01-28T14:40:56.399Z,3.83
2019-01-28T14:43:27.963Z,1.00
2019-01-28T14:45:59.108Z,2.30
2019-01-28T14:48:31.203Z,2.17
2019-01-28T14:51:02.528Z,2.13
2019-01-28T14:53:39.829Z,5.20
2019-01-28T14:56:11.114Z,4.83
2019-01-28T14:58:42.547Z,4.90
2019-01-28T15:01:13.709Z,3.73
2019-01-28T15:03:45.244Z,7.87
2019-01-28T15:06:17.515Z,14.17
2019-01-28T15:08:48.980Z,5.53
2019-01-28T15:11:20.105Z,9.73
2019-01-28T15:13:53.607Z,10.97
2019-01-28T15:16:25.205Z,17.17
2019-01-28T15:18:56.289Z,10.77
2019-01-28T15:21:27.838Z,11.27
2019-01-28T15:23:59.238Z,7.33
2019-01-28T15:26:30.214Z,10.00
2019-01-28T15:29:01.705Z,7.00
2019-01-28T15:31:33.169Z,8.53
2019-01-28T15:34:04.259Z,6.60
2019-01-28T15:36:35.513Z,6.93
2019-01-28T15:39:08.735Z,6.40
2019-01-28T15:41:39.858Z,8.07
2019-01-28T15:44:11.034Z,10.03
2019-01-28T15:46:42.199Z,8.03
2019-01-28T15:49:13.523Z,6.20
2019-01-28T15:51:44.915Z,13.03
2019-01-28T15:54:16.265Z,12.73
2019-01-28T15:56:47.928Z,7.97
2019-01-28T15:59:19.234Z,6.17
2019-01-28T16:01:50.614Z,8.27
2019-01-28T16:04:21.759Z,8.27
2019-01-28T16:06:52.808Z,7.93
2019-01-28T16:09:28.873Z,10.70
2019-01-28T16:11:56.608Z,9.17
2019-01-28T16:14:28.160Z,18.40
2019-01-28T16:16:59.193Z,11.67
2019-01-28T16:19:30.258Z,8.97
2019-01-28T16:22:01.353Z,10.83
2019-01-28T16:24:32.939Z,9.53
2019-01-28T16:27:03.974Z,11.93
2019-01-28T16:29:36.495Z,11.97
2019-01-28T16:32:07.939Z,6.87
2019-01-28T16:34:39.378Z,6.30
2019-01-28T16:37:11.514Z,3.13
2019-01-28T16:39:43.173Z,4.60
2019-01-28T16:42:14.524Z,3.40
2019-01-28T16:44:45.658Z,4.27
2019-01-28T16:47:16.624Z,5.13
2019-01-28T16:49:47.923Z,6.37
2019-01-28T16:52:19.418Z,46.00
2019-01-28T16:54:50.713Z,130.83
2019-01-28T16:57:24.978Z,8.67
2019-01-28T16:59:58.058Z,8.43
2019-01-28T17:02:29.124Z,26.30
2019-01-28T17:05:00.758Z,12.07
2019-01-28T17:07:33.029Z,8.57
2019-01-28T17:10:05.992Z,9.53
2019-01-28T17:12:37.093Z,17.53
2019-01-28T17:15:09.668Z,18.10
2019-01-28T17:17:40.849Z,14.50
2019-01-28T17:20:14.969Z,8.77
2019-01-28T17:22:46.025Z,9.63
2019-01-28T17:25:18.679Z,9.93
2019-01-28T17:27:50.139Z,15.30
2019-01-28T17:30:23.289Z,8.63
2019-01-28T17:32:54.754Z,10.83
2019-01-28T17:35:26.124Z,25.77
2019-01-28T17:37:57.555Z,14.93
2019-01-28T17:40:29.239Z,20.33
2019-01-28T17:43:00.793Z,15.83
2019-01-28T17:45:33.373Z,16.37
2019-01-28T17:48:04.959Z,10.43
2019-01-28T17:50:43.309Z,12.03
2019-01-28T17:53:09.353Z,9.33
2019-01-28T17:55:40.564Z,9.70
2019-01-28T17:58:11.688Z,8.87
2019-01-28T18:00:49.838Z,8.60
2019-01-28T18:03:22.173Z,10.63
2019-01-28T18:05:53.238Z,11.70
2019-01-28T18:08:24.758Z,20.23
2019-01-28T18:10:56.156Z,10.47
2019-01-28T18:13:27.753Z,14.20
2019-01-28T18:15:59.259Z,11.53
2019-01-28T18:18:30.384Z,15.97
2019-01-28T18:21:01.774Z,14.07
2019-01-28T18:23:51.083Z,24.83
2019-01-28T18:26:22.665Z,13.50
2019-01-28T18:28:53.748Z,16.07
2019-01-28T18:31:25.258Z,53.17
2019-01-28T18:33:56.523Z,30.43
2019-01-28T18:36:28.190Z,43.07
2019-01-28T18:38:59.539Z,167.03
2019-01-28T18:41:31.093Z,153.80
2019-01-28T18:44:02.164Z,170.80
2019-01-28T18:46:33.440Z,81.37
2019-01-28T18:49:05.173Z,175.87
2019-01-28T18:51:36.624Z,352.03
2019-01-28T18:54:08.769Z,199.43
2019-01-28T18:56:40.607Z,301.77
2019-01-28T18:59:11.723Z,239.23
2019-01-28T19:01:43.249Z,198.63
2019-01-28T19:04:14.404Z,289.57
2019-01-28T19:07:15.594Z,192.13
2019-01-28T19:09:59.133Z,125.30
2019-01-28T19:12:51.048Z,78.33
2019-01-28T19:15:43.858Z,174.40
2019-01-28T19:18:29.136Z,68.07
2019-01-28T19:21:21.629Z,14.73
2019-01-28T19:23:52.659Z,17.93
2019-01-28T19:26:23.743Z,17.63
2019-01-28T19:28:55.319Z,27.33
2019-01-28T19:31:26.813Z,25.97
2019-01-28T19:33:58.344Z,49.77
2019-01-28T19:36:30.011Z,120.80
2019-01-28T19:39:01.314Z,51.57
2019-01-28T19:41:33.374Z,48.20
2019-01-28T19:44:05.034Z,24.87
2019-01-28T19:46:36.523Z,93.23
2019-01-28T19:49:08.278Z,21.03
2019-01-28T19:51:40.684Z,23.87
2019-01-28T19:54:12.004Z,18.73
2019-01-28T19:56:43.081Z,76.80
2019-01-28T19:59:14.558Z,30.00
2019-01-28T20:01:46.033Z,19.70
2019-01-28T20:04:17.929Z,23.80
2019-01-28T20:06:49.113Z,17.17
2019-01-28T20:09:20.703Z,21.87
2019-01-28T20:11:52.259Z,17.33
2019-01-28T20:14:23.938Z,17.00
2019-01-28T20:16:55.704Z,17.30
2019-01-28T20:19:27.113Z,14.63
2019-01-28T20:21:58.368Z,16.10
2019-01-28T20:24:32.117Z,18.43
2019-01-28T20:27:03.794Z,19.90
2019-01-28T20:29:36.433Z,17.80
2019-01-28T20:32:07.483Z,22.17
2019-01-28T20:34:43.418Z,17.57
2019-01-28T20:37:12.774Z,26.40
2019-01-28T20:39:44.364Z,15.83
2019-01-28T20:42:15.454Z,21.97
2019-01-28T20:44:47.108Z,16.77
2019-01-28T20:47:18.094Z,16.83
2019-01-28T20:49:49.264Z,18.53
2019-01-28T20:52:20.325Z,13.63
2019-01-28T20:54:51.809Z,16.83
2019-01-28T20:57:22.928Z,19.47
2019-01-28T20:59:54.105Z,17.47
2019-01-28T21:02:25.234Z,17.23
2019-01-28T21:04:56.707Z,19.13
2019-01-28T21:07:29.034Z,16.23
2019-01-28T21:10:00.517Z,23.10
2019-01-28T21:12:32.018Z,17.80
2019-01-28T21:15:03.788Z,17.73
2019-01-28T21:17:37.364Z,19.97
2019-01-28T21:20:10.679Z,22.17
2019-01-28T21:22:42.929Z,44.83
2019-01-28T21:25:32.469Z,21.53
2019-01-28T21:28:03.553Z,14.93
2019-01-28T21:30:34.861Z,23.60
2019-01-28T21:33:06.290Z,21.77
2019-01-28T21:35:55.193Z,19.77
2019-01-28T21:38:34.193Z,18.00
2019-01-28T21:41:05.409Z,22.70
2019-01-28T21:43:36.763Z,20.30
2019-01-28T21:46:08.438Z,19.43
2019-01-28T21:48:39.839Z,21.87
2019-01-28T21:51:13.079Z,19.10
2019-01-28T21:53:44.001Z,18.43
2019-01-28T21:56:15.068Z,14.17
2019-01-28T21:58:46.374Z,18.43
2019-01-28T22:01:18.069Z,14.07
2019-01-28T22:03:49.008Z,12.83
2019-01-28T22:06:20.599Z,15.00
2019-01-28T22:08:51.679Z,13.37
2019-01-28T22:11:23.263Z,21.47
2019-01-28T22:13:54.414Z,18.23
2019-01-28T22:16:25.758Z,13.87
2019-01-28T22:18:57.243Z,14.67
2019-01-28T22:21:28.469Z,22.50
2019-01-28T22:23:59.919Z,12.70
2019-01-28T22:26:31.668Z,20.30
2019-01-28T22:29:03.184Z,16.03
2019-01-28T22:31:34.283Z,12.87
2019-01-28T22:34:05.485Z,13.90
2019-01-28T22:36:36.958Z,21.20
2019-01-28T22:39:09.532Z,14.97
2019-01-28T22:41:41.047Z,21.63
2019-01-28T22:44:12.388Z,16.90
2019-01-28T22:46:43.929Z,19.23
2019-01-28T22:49:15.428Z,19.53
2019-01-28T22:51:46.618Z,17.77
2019-01-28T22:54:17.748Z,18.07
2019-01-28T22:56:48.798Z,22.43
2019-01-28T22:59:20.379Z,18.27
2019-01-28T23:01:51.638Z,22.13
2019-01-28T23:04:22.654Z,25.67
2019-01-28T23:06:53.833Z,17.47
2019-01-28T23:09:24.939Z,18.23
2019-01-28T23:11:56.089Z,18.57
2019-01-28T23:14:27.700Z,15.37
2019-01-28T23:16:59.418Z,17.03
2019-01-28T23:19:30.469Z,15.03
2019-01-28T23:22:01.649Z,19.23
2019-01-28T23:24:32.749Z,13.77
2019-01-28T23:27:04.334Z,15.00
2019-01-28T23:29:35.941Z,12.83
2019-01-28T23:32:07.184Z,19.27
2019-01-28T23:34:38.224Z,21.63
2019-01-28T23:37:09.784Z,20.07
2019-01-28T23:39:41.359Z,16.90
2019-01-28T23:42:13.583Z,20.63
2019-01-28T23:44:45.059Z,18.03
2019-01-28T23:47:16.798Z,26.33
2019-01-28T23:49:47.744Z,30.63
2019-01-28T23:52:24.718Z,64.77
2019-01-28T23:54:51.551Z,32.13
2019-01-28T23:57:22.616Z,23.43
2019-01-28T23:59:54.489Z,13.10
